createdAt,value
2017-08-22T00:00:54.923Z,0
2017-08-22T00:02:05.193Z,0
2017-08-22T00:03:14.835Z,0
2017-08-22T00:04:24.494Z,0
2017-08-22T00:05:34.769Z,0
2017-08-22T00:06:44.409Z,0
2017-08-22T00:07:54.363Z,0
2017-08-22T00:09:04.633Z,0
2017-08-22T00:10:14.593Z,0
2017-08-22T00:11:24.870Z,0
2017-08-22T00:12:34.824Z,0
2017-08-22T00:13:44.784Z,0
2017-08-22T00:14:54.743Z,0
2017-08-22T00:16:05.016Z,0
2017-08-22T00:17:15.286Z,0
2017-08-22T00:18:25.554Z,0
2017-08-22T00:19:35.830Z,0
2017-08-22T00:20:45.784Z,0
2017-08-22T00:21:55.748Z,0
2017-08-22T00:23:05.702Z,0
2017-08-22T00:24:15.971Z,0
2017-08-22T00:25:26.243Z,0
2017-08-22T00:26:36.195Z,0
2017-08-22T00:27:45.521Z,0
2017-08-22T00:28:55.477Z,0
2017-08-22T00:30:05.758Z,0
2017-08-22T00:31:16.029Z,0
2017-08-22T00:32:25.985Z,0
2017-08-22T00:33:36.257Z,0
2017-08-22T00:34:45.903Z,0
2017-08-22T00:35:56.173Z,0
2017-08-22T00:37:06.130Z,0
2017-08-22T00:38:16.402Z,0
2017-08-22T00:39:26.671Z,0
2017-08-22T00:40:36.944Z,0
2017-08-22T00:41:46.898Z,0
2017-08-22T00:42:57.172Z,0
2017-08-22T00:44:07.166Z,0
2017-08-22T00:45:17.125Z,0
2017-08-22T00:46:27.083Z,0
2017-08-22T00:47:36.722Z,0
2017-08-22T00:48:46.999Z,0
2017-08-22T00:49:57.274Z,0
2017-08-22T00:51:07.562Z,0
2017-08-22T00:52:17.832Z,0
2017-08-22T00:53:28.102Z,0
2017-08-22T00:54:38.056Z,0
2017-08-22T00:55:48.330Z,0
2017-08-22T00:56:58.285Z,0
2017-08-22T00:58:08.561Z,0
2017-08-22T00:59:18.206Z,0
2017-08-22T01:00:28.473Z,0
2017-08-22T01:01:38.115Z,0
2017-08-22T01:02:48.073Z,0
2017-08-22T01:03:58.342Z,0
2017-08-22T01:05:08.305Z,0
2017-08-22T01:06:18.276Z,0
2017-08-22T01:07:28.548Z,0
2017-08-22T01:08:38.818Z,0
2017-08-22T01:09:48.141Z,0
2017-08-22T01:10:58.409Z,0
2017-08-22T01:12:08.364Z,0
2017-08-22T01:13:18.320Z,0
2017-08-22T01:14:27.962Z,0
2017-08-22T01:15:38.234Z,0
2017-08-22T01:16:48.191Z,0
2017-08-22T01:17:58.148Z,0
2017-08-22T01:19:08.424Z,0
2017-08-22T01:20:18.695Z,0
2017-08-22T01:21:28.650Z,0
2017-08-22T01:22:38.296Z,0
2017-08-22T01:23:48.564Z,0
2017-08-22T01:24:58.842Z,0
2017-08-22T01:26:09.117Z,0
2017-08-22T01:27:19.388Z,0
2017-08-22T01:28:29.664Z,0
2017-08-22T01:29:39.941Z,0
2017-08-22T01:30:49.898Z,0
2017-08-22T01:32:00.170Z,0
2017-08-22T01:33:10.440Z,0
2017-08-22T01:34:20.720Z,0
2017-08-22T01:35:30.680Z,0
2017-08-22T01:36:40.325Z,0
2017-08-22T01:37:50.593Z,0
2017-08-22T01:39:00.886Z,0
2017-08-22T01:40:10.845Z,0
2017-08-22T01:41:21.116Z,0
2017-08-22T01:42:31.385Z,0
2017-08-22T01:43:41.340Z,0
2017-08-22T01:44:51.608Z,0
2017-08-22T01:46:01.259Z,0
2017-08-22T01:47:11.215Z,0
2017-08-22T01:48:21.484Z,0
2017-08-22T01:49:31.437Z,0
2017-08-22T01:50:41.083Z,0
2017-08-22T01:51:51.355Z,0
2017-08-22T01:53:01.634Z,0
2017-08-22T01:54:11.910Z,0
2017-08-22T01:55:22.180Z,0
2017-08-22T01:56:32.452Z,0
2017-08-22T01:57:42.726Z,0
2017-08-22T01:58:53.000Z,0
2017-08-22T02:00:02.956Z,0
2017-08-22T02:01:12.599Z,0
2017-08-22T02:02:22.557Z,0
2017-08-22T02:03:32.845Z,0
2017-08-22T02:04:42.800Z,0
2017-08-22T02:05:53.068Z,0
2017-08-22T02:07:03.338Z,0
2017-08-22T02:08:12.979Z,0
2017-08-22T02:09:22.310Z,0
2017-08-22T02:10:32.101Z,0
2017-08-22T02:11:42.082Z,0
2017-08-22T02:12:52.352Z,0
2017-08-22T02:14:02.309Z,0
2017-08-22T02:15:12.580Z,0
2017-08-22T02:16:22.856Z,0
2017-08-22T02:17:33.129Z,0
2017-08-22T02:18:43.393Z,0
2017-08-22T02:19:53.664Z,0
2017-08-22T02:21:03.626Z,0
2017-08-22T02:22:13.580Z,0
2017-08-22T02:23:23.534Z,0
2017-08-22T02:24:33.803Z,0
2017-08-22T02:25:43.757Z,0
2017-08-22T02:26:54.024Z,0
2017-08-22T02:28:04.323Z,0
2017-08-22T02:29:14.596Z,0
2017-08-22T02:30:24.884Z,0
2017-08-22T02:31:34.849Z,0
2017-08-22T02:32:44.811Z,0
2017-08-22T02:33:55.085Z,0
2017-08-22T02:35:05.047Z,0
2017-08-22T02:36:15.320Z,0
2017-08-22T02:37:25.277Z,0
2017-08-22T02:38:35.545Z,0
2017-08-22T02:39:45.188Z,0
2017-08-22T02:40:55.150Z,0
2017-08-22T02:42:05.103Z,0
2017-08-22T02:43:15.372Z,0
2017-08-22T02:44:25.652Z,0
2017-08-22T02:45:35.311Z,0
2017-08-22T02:46:45.275Z,0
2017-08-22T02:47:55.549Z,0
2017-08-22T02:49:05.822Z,0
2017-08-22T02:50:15.792Z,0
2017-08-22T02:51:25.757Z,0
2017-08-22T02:52:35.741Z,0
2017-08-22T02:53:46.016Z,0
2017-08-22T02:54:56.290Z,0
2017-08-22T02:56:06.555Z,0
2017-08-22T02:57:16.511Z,0
2017-08-22T02:58:26.471Z,0
2017-08-22T02:59:36.741Z,0
2017-08-22T03:00:47.016Z,0
2017-08-22T03:01:57.285Z,0
2017-08-22T03:03:07.241Z,0
2017-08-22T03:04:17.510Z,0
2017-08-22T03:05:27.779Z,0
2017-08-22T03:06:38.049Z,0
2017-08-22T03:07:48.326Z,0
2017-08-22T03:08:58.601Z,0
2017-08-22T03:10:08.867Z,0
2017-08-22T03:11:18.508Z,0
2017-08-22T03:12:28.786Z,0
2017-08-22T03:13:39.062Z,0
2017-08-22T03:14:48.700Z,0
2017-08-22T03:15:58.969Z,0
2017-08-22T03:17:08.924Z,0
2017-08-22T03:18:19.222Z,0
2017-08-22T03:19:29.493Z,0
2017-08-22T03:20:39.462Z,0
2017-08-22T03:21:48.472Z,0
2017-08-22T03:22:58.742Z,0
2017-08-22T03:24:08.699Z,0
2017-08-22T03:25:18.992Z,0
2017-08-22T03:26:29.258Z,0
2017-08-22T03:27:39.535Z,0
2017-08-22T03:28:49.183Z,0
2017-08-22T03:29:59.139Z,0
2017-08-22T03:31:09.106Z,0
2017-08-22T03:32:19.377Z,0
2017-08-22T03:33:29.332Z,0
2017-08-22T03:34:39.602Z,0
2017-08-22T03:35:49.241Z,5
2017-08-22T03:36:59.514Z,5
2017-08-22T03:38:09.783Z,5
2017-08-22T03:39:19.427Z,5
2017-08-22T03:40:29.700Z,5
2017-08-22T03:41:39.979Z,5
2017-08-22T03:42:49.629Z,5
2017-08-22T03:43:59.898Z,10
2017-08-22T03:45:10.180Z,10
2017-08-22T03:46:20.132Z,10
2017-08-22T03:47:29.769Z,10
2017-08-22T03:48:40.047Z,10
2017-08-22T03:49:50.326Z,15
2017-08-22T03:51:00.600Z,15
2017-08-22T03:52:10.553Z,15
2017-08-22T03:53:20.197Z,15
2017-08-22T03:54:29.836Z,20
2017-08-22T03:55:39.787Z,20
2017-08-22T03:56:49.744Z,20
2017-08-22T03:58:00.017Z,20
2017-08-22T03:59:10.286Z,25
2017-08-22T04:00:19.927Z,25
2017-08-22T04:01:29.878Z,25
2017-08-22T04:02:40.199Z,25
2017-08-22T04:03:50.470Z,30
2017-08-22T04:05:00.746Z,30
2017-08-22T04:06:10.384Z,35
2017-08-22T04:07:20.337Z,35
2017-08-22T04:08:30.292Z,35
2017-08-22T04:09:40.566Z,35
2017-08-22T04:10:50.843Z,35
2017-08-22T04:12:01.111Z,35
2017-08-22T04:13:11.390Z,35
2017-08-22T04:14:21.350Z,35
2017-08-22T04:15:31.627Z,40
2017-08-22T04:16:41.267Z,40
2017-08-22T04:17:51.532Z,40
2017-08-22T04:19:01.804Z,40
2017-08-22T04:20:12.077Z,40
2017-08-22T04:21:22.030Z,40
2017-08-22T04:22:32.299Z,45
2017-08-22T04:23:42.258Z,45
2017-08-22T04:24:52.215Z,45
2017-08-22T04:26:02.488Z,45
2017-08-22T04:27:12.441Z,50
2017-08-22T04:28:22.401Z,50
2017-08-22T04:29:32.668Z,50
2017-08-22T04:30:42.622Z,50
2017-08-22T04:31:52.895Z,50
2017-08-22T04:33:02.852Z,50
2017-08-22T04:34:13.139Z,50
2017-08-22T04:35:23.410Z,55
2017-08-22T04:36:33.683Z,55
2017-08-22T04:37:43.953Z,55
2017-08-22T04:38:53.906Z,55
2017-08-22T04:40:03.857Z,55
2017-08-22T04:41:13.501Z,60
2017-08-22T04:42:23.775Z,60
2017-08-22T04:43:34.047Z,60
2017-08-22T04:44:44.319Z,65
2017-08-22T04:45:54.588Z,65
2017-08-22T04:47:04.856Z,65
2017-08-22T04:48:15.126Z,65
2017-08-22T04:49:25.086Z,70
2017-08-22T04:50:35.362Z,70
2017-08-22T04:51:45.636Z,70
2017-08-22T04:52:55.914Z,70
2017-08-22T04:54:05.874Z,75
2017-08-22T04:55:15.833Z,70
2017-08-22T04:56:25.788Z,75
2017-08-22T04:57:36.060Z,75
2017-08-22T04:58:46.338Z,75
2017-08-22T04:59:56.608Z,75
2017-08-22T05:01:06.882Z,80
2017-08-22T05:02:16.523Z,80
2017-08-22T05:03:26.476Z,80
2017-08-22T05:04:36.752Z,80
2017-08-22T05:05:46.709Z,85
2017-08-22T05:06:56.993Z,85
2017-08-22T05:08:07.263Z,85
2017-08-22T05:09:17.531Z,90
2017-08-22T05:10:27.166Z,90
2017-08-22T05:11:37.128Z,95
2017-08-22T05:12:47.444Z,95
2017-08-22T05:13:57.742Z,100
2017-08-22T05:15:07.384Z,100
2017-08-22T05:16:17.344Z,105
2017-08-22T05:17:26.983Z,105
2017-08-22T05:18:36.626Z,110
2017-08-22T05:19:46.580Z,110
2017-08-22T05:20:56.850Z,110
2017-08-22T05:22:06.848Z,110
2017-08-22T05:23:17.116Z,115
2017-08-22T05:24:27.387Z,115
2017-08-22T05:25:37.341Z,120
2017-08-22T05:26:47.294Z,120
2017-08-22T05:27:57.561Z,120
2017-08-22T05:29:07.833Z,120
2017-08-22T05:30:18.107Z,125
2017-08-22T05:31:28.374Z,125
2017-08-22T05:32:38.327Z,130
2017-08-22T05:33:48.283Z,130
2017-08-22T05:34:58.555Z,135
2017-08-22T05:36:08.826Z,135
2017-08-22T05:37:19.093Z,135
2017-08-22T05:38:29.360Z,135
2017-08-22T05:39:39.319Z,135
2017-08-22T05:40:49.272Z,135
2017-08-22T05:41:59.548Z,130
2017-08-22T05:43:09.195Z,135
2017-08-22T05:44:19.164Z,130
2017-08-22T05:45:29.436Z,130
2017-08-22T05:46:39.720Z,130
2017-08-22T05:47:49.677Z,130
2017-08-22T05:48:59.638Z,125
2017-08-22T05:50:09.602Z,125
2017-08-22T05:51:19.873Z,130
2017-08-22T05:52:30.157Z,130
2017-08-22T05:53:40.431Z,135
2017-08-22T05:54:50.384Z,135
2017-08-22T05:56:00.341Z,135
2017-08-22T05:57:10.299Z,140
2017-08-22T05:58:20.262Z,140
2017-08-22T05:59:30.531Z,140
2017-08-22T06:00:40.800Z,140
2017-08-22T06:01:50.762Z,140
2017-08-22T06:03:00.722Z,135
2017-08-22T06:04:10.991Z,135
2017-08-22T06:05:20.943Z,135
2017-08-22T06:06:30.902Z,135
2017-08-22T06:07:41.174Z,135
2017-08-22T06:08:51.455Z,130
2017-08-22T06:10:01.414Z,130
2017-08-22T06:11:11.688Z,130
2017-08-22T06:12:21.644Z,135
2017-08-22T06:13:31.602Z,140
2017-08-22T06:14:41.869Z,145
2017-08-22T06:15:52.138Z,140
2017-08-22T06:17:02.089Z,140
2017-08-22T06:18:12.044Z,150
2017-08-22T06:19:22.048Z,145
2017-08-22T06:20:32.469Z,140
2017-08-22T06:21:42.739Z,145
2017-08-22T06:22:53.009Z,160
2017-08-22T06:24:03.294Z,155
2017-08-22T06:25:12.622Z,155
2017-08-22T06:26:22.578Z,155
2017-08-22T06:27:32.854Z,150
2017-08-22T06:28:43.120Z,140
2017-08-22T06:29:53.082Z,155
2017-08-22T06:31:03.055Z,155
2017-08-22T06:32:13.013Z,155
2017-08-22T06:33:23.285Z,155
2017-08-22T06:34:33.557Z,155
2017-08-22T06:35:43.830Z,155
2017-08-22T06:36:54.102Z,145
2017-08-22T06:38:04.058Z,155
2017-08-22T06:39:14.332Z,155
2017-08-22T06:40:24.288Z,150
2017-08-22T06:41:34.243Z,160
2017-08-22T06:42:44.200Z,150
2017-08-22T06:43:54.471Z,160
2017-08-22T06:45:04.748Z,160
2017-08-22T06:46:15.025Z,160
2017-08-22T06:47:25.295Z,160
2017-08-22T06:48:35.566Z,155
2017-08-22T06:49:45.535Z,160
2017-08-22T06:50:55.806Z,165
2017-08-22T06:52:06.084Z,150
2017-08-22T06:53:16.352Z,145
2017-08-22T06:54:26.630Z,145
2017-08-22T06:55:36.585Z,150
2017-08-22T06:56:46.754Z,155
2017-08-22T06:57:57.025Z,150
2017-08-22T06:59:09.311Z,150
2017-08-22T07:00:19.594Z,150
2017-08-22T07:01:31.222Z,150
2017-08-22T07:02:41.489Z,150
2017-08-22T07:03:51.443Z,160
2017-08-22T07:05:01.424Z,170
2017-08-22T07:06:11.382Z,165
2017-08-22T07:07:21.656Z,165
2017-08-22T07:08:31.924Z,160
2017-08-22T07:09:42.196Z,160
2017-08-22T07:10:52.466Z,165
2017-08-22T07:12:02.426Z,170
2017-08-22T07:13:12.698Z,165
2017-08-22T07:14:22.659Z,170
2017-08-22T07:15:32.930Z,170
2017-08-22T07:16:42.888Z,170
2017-08-22T07:17:53.156Z,170
2017-08-22T07:19:03.424Z,170
2017-08-22T07:20:13.318Z,170
2017-08-22T07:21:23.595Z,175
2017-08-22T07:22:33.871Z,175
2017-08-22T07:23:44.144Z,175
2017-08-22T07:24:54.459Z,175
2017-08-22T07:26:04.790Z,180
2017-08-22T07:27:14.750Z,180
2017-08-22T07:28:24.705Z,180
2017-08-22T07:29:34.972Z,180
2017-08-22T07:30:44.932Z,185
2017-08-22T07:31:54.891Z,190
2017-08-22T07:33:04.532Z,190
2017-08-22T07:34:14.488Z,180
2017-08-22T07:35:24.443Z,200
2017-08-22T07:36:34.717Z,180
2017-08-22T07:37:44.990Z,190
2017-08-22T07:38:54.950Z,190
2017-08-22T07:40:05.238Z,195
2017-08-22T07:41:14.890Z,170
2017-08-22T07:42:24.845Z,170
2017-08-22T07:43:35.115Z,180
2017-08-22T07:44:45.388Z,185
2017-08-22T07:45:55.673Z,190
2017-08-22T07:47:05.946Z,185
2017-08-22T07:48:16.218Z,185
2017-08-22T07:49:26.176Z,185
2017-08-22T07:50:36.454Z,175
2017-08-22T07:51:46.732Z,165
2017-08-22T07:52:56.688Z,165
2017-08-22T07:54:06.327Z,190
2017-08-22T07:55:16.605Z,195
2017-08-22T07:56:26.881Z,195
2017-08-22T07:57:36.520Z,190
2017-08-22T07:58:46.476Z,175
2017-08-22T07:59:56.749Z,205
2017-08-22T08:01:07.016Z,175
2017-08-22T08:02:17.300Z,195
2017-08-22T08:03:27.572Z,185
2017-08-22T08:04:37.841Z,180
2017-08-22T08:05:47.491Z,180
2017-08-22T08:06:57.386Z,190
2017-08-22T08:08:07.340Z,210
2017-08-22T08:09:17.613Z,195
2017-08-22T08:10:27.572Z,200
2017-08-22T08:11:37.842Z,190
2017-08-22T08:12:47.798Z,210
2017-08-22T08:13:57.754Z,215
2017-08-22T08:15:07.711Z,245
2017-08-22T08:16:17.675Z,250
2017-08-22T08:17:27.659Z,250
2017-08-22T08:18:38.082Z,250
2017-08-22T08:19:48.036Z,245
2017-08-22T08:20:57.362Z,220
2017-08-22T08:22:07.634Z,215
2017-08-22T08:23:17.275Z,200
2017-08-22T08:24:29.550Z,205
2017-08-22T08:25:39.198Z,210
2017-08-22T08:26:49.466Z,235
2017-08-22T08:27:59.473Z,220
2017-08-22T08:29:09.434Z,245
2017-08-22T08:30:19.395Z,310
2017-08-22T08:31:29.359Z,330
2017-08-22T08:32:39.320Z,335
2017-08-22T08:33:49.284Z,300
2017-08-22T08:34:59.242Z,305
2017-08-22T08:36:09.200Z,275
2017-08-22T08:37:19.470Z,275
2017-08-22T08:38:29.429Z,270
2017-08-22T08:39:39.707Z,290
2017-08-22T08:40:49.986Z,335
2017-08-22T08:41:59.950Z,380
2017-08-22T08:43:09.912Z,375
2017-08-22T08:44:19.876Z,385
2017-08-22T08:45:30.152Z,400
2017-08-22T08:46:40.423Z,425
2017-08-22T08:47:50.701Z,450
2017-08-22T08:49:00.343Z,445
2017-08-22T08:50:10.307Z,440
2017-08-22T08:51:20.263Z,420
2017-08-22T08:52:30.221Z,390
2017-08-22T08:53:40.497Z,340
2017-08-22T08:54:50.777Z,305
2017-08-22T08:56:01.055Z,285
2017-08-22T08:57:11.056Z,290
2017-08-22T08:58:21.031Z,315
2017-08-22T08:59:31.308Z,340
2017-08-22T09:00:41.579Z,355
2017-08-22T09:01:51.543Z,365
2017-08-22T09:03:01.817Z,355
2017-08-22T09:04:12.092Z,350
2017-08-22T09:05:22.649Z,350
2017-08-22T09:06:32.616Z,350
2017-08-22T09:07:42.896Z,395
2017-08-22T09:08:53.174Z,405
2017-08-22T09:10:03.457Z,410
2017-08-22T09:11:15.422Z,405
2017-08-22T09:12:25.388Z,460
2017-08-22T09:13:35.034Z,475
2017-08-22T09:14:45.308Z,485
2017-08-22T09:15:55.578Z,455
2017-08-22T09:17:05.537Z,435
2017-08-22T09:18:15.815Z,440
2017-08-22T09:19:25.780Z,470
2017-08-22T09:20:36.059Z,440
2017-08-22T09:21:46.356Z,480
2017-08-22T09:22:56.317Z,485
2017-08-22T09:24:06.279Z,495
2017-08-22T09:25:16.579Z,465
2017-08-22T09:26:26.221Z,475
2017-08-22T09:27:36.508Z,490
2017-08-22T09:28:46.463Z,495
2017-08-22T09:29:56.109Z,495
2017-08-22T09:31:06.064Z,525
2017-08-22T09:32:16.029Z,515
2017-08-22T09:33:26.346Z,515
2017-08-22T09:34:35.989Z,520
2017-08-22T09:35:45.644Z,515
2017-08-22T09:36:55.613Z,500
2017-08-22T09:38:04.947Z,495
2017-08-22T09:39:15.248Z,500
2017-08-22T09:40:25.208Z,500
2017-08-22T09:41:35.481Z,470
2017-08-22T09:42:45.757Z,475
2017-08-22T09:43:56.041Z,485
2017-08-22T09:45:06.321Z,475
2017-08-22T09:46:15.650Z,470
2017-08-22T09:47:25.924Z,485
2017-08-22T09:48:35.896Z,485
2017-08-22T09:49:46.180Z,490
2017-08-22T09:50:56.454Z,485
2017-08-22T09:52:06.425Z,490
2017-08-22T09:53:16.074Z,495
2017-08-22T09:54:26.351Z,465
2017-08-22T09:55:36.633Z,430
2017-08-22T09:56:46.907Z,400
2017-08-22T09:57:56.884Z,375
2017-08-22T09:59:06.529Z,355
2017-08-22T10:00:16.180Z,365
2017-08-22T10:01:26.141Z,395
2017-08-22T10:02:36.100Z,440
2017-08-22T10:03:46.376Z,480
2017-08-22T10:04:56.339Z,445
2017-08-22T10:06:06.687Z,455
2017-08-22T10:07:16.657Z,480
2017-08-22T10:08:26.930Z,505
2017-08-22T10:09:36.902Z,515
2017-08-22T10:10:47.179Z,505
2017-08-22T10:11:57.455Z,530
2017-08-22T10:13:07.733Z,510
2017-08-22T10:14:18.016Z,495
2017-08-22T10:15:27.666Z,480
2017-08-22T10:16:37.632Z,465
2017-08-22T10:17:47.911Z,465
2017-08-22T10:18:57.869Z,460
2017-08-22T10:20:07.832Z,480
2017-08-22T10:21:18.108Z,445
2017-08-22T10:22:28.386Z,380
2017-08-22T10:23:38.348Z,345
2017-08-22T10:24:48.622Z,325
2017-08-22T10:25:58.581Z,320
2017-08-22T10:27:08.861Z,300
2017-08-22T10:28:19.153Z,295
2017-08-22T10:29:29.428Z,290
2017-08-22T10:30:39.073Z,245
2017-08-22T10:31:49.034Z,295
2017-08-22T10:32:59.313Z,310
2017-08-22T10:34:09.590Z,350
2017-08-22T10:35:19.865Z,380
2017-08-22T10:36:30.141Z,370
2017-08-22T10:37:40.421Z,410
2017-08-22T10:38:50.692Z,410
2017-08-22T10:40:00.658Z,365
2017-08-22T10:41:10.941Z,370
2017-08-22T10:42:20.584Z,400
2017-08-22T10:43:30.862Z,455
2017-08-22T10:44:41.156Z,550
2017-08-22T10:45:50.805Z,635
2017-08-22T10:47:00.456Z,620
2017-08-22T10:48:10.734Z,610
2017-08-22T10:49:20.691Z,595
2017-08-22T10:50:30.967Z,600
2017-08-22T10:51:40.615Z,625
2017-08-22T10:52:50.896Z,635
2017-08-22T10:54:00.883Z,620
2017-08-22T10:55:10.844Z,650
2017-08-22T10:56:20.809Z,595
2017-08-22T10:57:30.775Z,590
2017-08-22T10:58:41.065Z,555
2017-08-22T10:59:51.350Z,570
2017-08-22T11:01:01.312Z,565
2017-08-22T11:02:10.958Z,535
2017-08-22T11:03:20.294Z,555
2017-08-22T11:04:30.578Z,625
2017-08-22T11:05:40.540Z,590
2017-08-22T11:06:50.813Z,595
2017-08-22T11:08:01.088Z,585
2017-08-22T11:09:11.416Z,540
2017-08-22T11:10:21.693Z,485
2017-08-22T11:11:31.656Z,450
2017-08-22T11:12:41.619Z,440
2017-08-22T11:13:51.586Z,445
2017-08-22T11:15:01.884Z,450
2017-08-22T11:16:11.534Z,485
2017-08-22T11:17:21.814Z,555
2017-08-22T11:18:32.092Z,600
2017-08-22T11:19:42.374Z,600
2017-08-22T11:20:52.674Z,660
2017-08-22T11:22:02.641Z,735
2017-08-22T11:23:12.921Z,925
2017-08-22T11:24:23.198Z,1825
2017-08-22T11:25:32.847Z,885
2017-08-22T11:26:42.812Z,775
2017-08-22T11:27:53.090Z,785
2017-08-22T11:29:03.369Z,1475
2017-08-22T11:30:13.334Z,2975
2017-08-22T11:31:23.310Z,810
2017-08-22T11:32:32.957Z,780
2017-08-22T11:33:43.240Z,640
2017-08-22T11:34:52.890Z,665
2017-08-22T11:36:03.172Z,715
2017-08-22T11:37:13.456Z,2800
2017-08-22T11:38:23.430Z,920
2017-08-22T11:39:33.406Z,1090
2017-08-22T11:40:43.375Z,525
2017-08-22T11:41:53.351Z,440
2017-08-22T11:43:03.632Z,385
2017-08-22T11:44:13.909Z,370
2017-08-22T11:45:23.571Z,395
2017-08-22T11:46:33.854Z,465
2017-08-22T11:47:44.134Z,2295
2017-08-22T11:48:54.100Z,2545
2017-08-22T11:50:04.064Z,2580
2017-08-22T11:51:13.711Z,2685
2017-08-22T11:52:23.678Z,2810
2017-08-22T11:53:33.961Z,1730
2017-08-22T11:54:44.239Z,905
2017-08-22T11:55:53.891Z,910
2017-08-22T11:57:04.174Z,710
2017-08-22T11:58:14.143Z,700
2017-08-22T11:59:24.451Z,910
2017-08-22T12:00:34.746Z,2265
2017-08-22T12:01:45.028Z,795
2017-08-22T12:02:55.315Z,725
2017-08-22T12:04:05.615Z,710
2017-08-22T12:05:15.908Z,685
2017-08-22T12:06:26.188Z,710
2017-08-22T12:07:36.478Z,780
2017-08-22T12:08:46.763Z,795
2017-08-22T12:09:56.423Z,740
2017-08-22T12:11:06.716Z,770
2017-08-22T12:12:16.997Z,755
2017-08-22T12:13:27.283Z,690
2017-08-22T12:14:37.568Z,650
2017-08-22T12:15:47.852Z,685
2017-08-22T12:16:57.833Z,1455
2017-08-22T12:18:07.800Z,2925
2017-08-22T12:19:17.137Z,3035
2017-08-22T12:20:27.418Z,795
2017-08-22T12:21:37.705Z,615
2017-08-22T12:22:47.986Z,635
2017-08-22T12:23:58.267Z,1775
2017-08-22T12:25:07.921Z,2545
2017-08-22T12:26:18.202Z,2530
2017-08-22T12:27:28.171Z,1680
2017-08-22T12:28:38.483Z,2485
2017-08-22T12:29:48.771Z,935
2017-08-22T12:30:59.053Z,830
2017-08-22T12:32:08.724Z,1790
2017-08-22T12:33:18.722Z,1730
2017-08-22T12:34:28.695Z,1995
2017-08-22T12:35:38.671Z,2825
2017-08-22T12:36:48.647Z,1065
2017-08-22T12:37:58.930Z,3030
2017-08-22T12:39:08.908Z,1350
2017-08-22T12:40:19.195Z,1530
2017-08-22T12:41:29.170Z,930
2017-08-22T12:42:39.142Z,990
2017-08-22T12:43:49.426Z,2400
2017-08-22T12:44:59.088Z,1450
2017-08-22T12:46:09.059Z,960
2017-08-22T12:47:19.346Z,1430
2017-08-22T12:48:29.328Z,725
2017-08-22T12:49:39.644Z,725
2017-08-22T12:50:49.925Z,880
2017-08-22T12:52:00.221Z,1265
2017-08-22T12:53:10.530Z,1105
2017-08-22T12:54:20.507Z,1225
2017-08-22T12:55:30.799Z,1200
2017-08-22T12:56:41.082Z,885
2017-08-22T12:57:51.389Z,835
2017-08-22T12:59:01.361Z,1165
2017-08-22T13:00:11.334Z,795
2017-08-22T13:01:21.303Z,1180
2017-08-22T13:02:31.590Z,860
2017-08-22T13:03:41.873Z,780
2017-08-22T13:04:51.846Z,765
2017-08-22T13:06:02.130Z,770
2017-08-22T13:07:12.414Z,980
2017-08-22T13:08:22.383Z,985
2017-08-22T13:09:32.670Z,3090
2017-08-22T13:10:42.646Z,1205
2017-08-22T13:11:52.935Z,995
2017-08-22T13:13:02.273Z,1995
2017-08-22T13:14:12.558Z,2120
2017-08-22T13:15:22.526Z,3050
2017-08-22T13:16:32.497Z,2735
2017-08-22T13:17:42.809Z,2730
2017-08-22T13:18:52.777Z,2810
2017-08-22T13:20:02.753Z,2865
2017-08-22T13:21:12.731Z,2850
2017-08-22T13:22:23.065Z,2825
2017-08-22T13:23:33.349Z,2845
2017-08-22T13:24:43.321Z,2790
2017-08-22T13:25:53.298Z,2805
2017-08-22T13:27:03.588Z,2875
2017-08-22T13:28:13.874Z,2905
2017-08-22T13:29:24.162Z,2940
2017-08-22T13:30:34.460Z,2865
2017-08-22T13:31:44.435Z,2315
2017-08-22T13:32:54.408Z,2925
2017-08-22T13:34:04.386Z,2975
2017-08-22T13:35:14.675Z,2725
2017-08-22T13:36:24.973Z,2805
2017-08-22T13:37:34.947Z,2925
2017-08-22T13:38:45.239Z,2970
2017-08-22T13:39:55.217Z,1815
2017-08-22T13:41:05.194Z,3005
2017-08-22T13:42:15.175Z,2900
2017-08-22T13:43:25.151Z,2915
2017-08-22T13:44:35.452Z,970
2017-08-22T13:45:45.427Z,715
2017-08-22T13:46:55.727Z,710
2017-08-22T13:48:06.023Z,815
2017-08-22T13:49:16.317Z,960
2017-08-22T13:50:26.302Z,775
2017-08-22T13:51:36.277Z,2120
2017-08-22T13:52:46.565Z,1505
2017-08-22T13:53:56.852Z,1075
2017-08-22T13:55:06.835Z,2605
2017-08-22T13:56:16.805Z,2590
2017-08-22T13:57:26.465Z,2580
2017-08-22T13:58:36.755Z,2605
2017-08-22T13:59:47.045Z,2605
2017-08-22T14:00:57.343Z,2515
2017-08-22T14:02:07.632Z,2595
2017-08-22T14:03:17.932Z,2590
2017-08-22T14:04:28.219Z,2625
2017-08-22T14:05:38.192Z,2565
2017-08-22T14:06:48.482Z,970
2017-08-22T14:07:58.771Z,2555
2017-08-22T14:09:09.068Z,2665
2017-08-22T14:10:19.356Z,2105
2017-08-22T14:11:29.331Z,2565
2017-08-22T14:12:39.642Z,2495
2017-08-22T14:13:49.301Z,2435
2017-08-22T14:14:59.591Z,2420
2017-08-22T14:16:09.568Z,2460
2017-08-22T14:17:19.548Z,2530
2017-08-22T14:18:29.851Z,2495
2017-08-22T14:19:39.831Z,2470
2017-08-22T14:20:49.489Z,2490
2017-08-22T14:21:59.787Z,2540
2017-08-22T14:23:10.079Z,2505
2017-08-22T14:24:20.376Z,2395
2017-08-22T14:25:30.349Z,1520
2017-08-22T14:26:40.325Z,2565
2017-08-22T14:27:50.304Z,2605
2017-08-22T14:29:00.594Z,2520
2017-08-22T14:30:10.576Z,2540
2017-08-22T14:31:20.867Z,2550
2017-08-22T14:32:31.158Z,2455
2017-08-22T14:33:40.822Z,2530
2017-08-22T14:34:51.148Z,2650
2017-08-22T14:36:01.124Z,2550
2017-08-22T14:37:10.783Z,2515
2017-08-22T14:38:21.075Z,2500
2017-08-22T14:39:31.372Z,2520
2017-08-22T14:40:41.673Z,2510
2017-08-22T14:41:51.970Z,2435
2017-08-22T14:43:02.262Z,2235
2017-08-22T14:44:12.554Z,2145
2017-08-22T14:45:22.847Z,2275
2017-08-22T14:46:33.138Z,2275
2017-08-22T14:47:43.461Z,2405
2017-08-22T14:48:53.437Z,2470
2017-08-22T14:50:03.103Z,2330
2017-08-22T14:51:13.397Z,2185
2017-08-22T14:52:23.378Z,1985
2017-08-22T14:53:33.667Z,1765
2017-08-22T14:54:43.970Z,1720
2017-08-22T14:55:53.946Z,1810
2017-08-22T14:57:04.237Z,1930
2017-08-22T14:58:14.208Z,1845
2017-08-22T14:59:24.496Z,2025
2017-08-22T15:00:34.787Z,2285
2017-08-22T15:01:45.102Z,2375
2017-08-22T15:02:55.396Z,2360
2017-08-22T15:04:05.703Z,2360
2017-08-22T15:05:15.680Z,2340
2017-08-22T15:06:25.971Z,2240
2017-08-22T15:07:36.274Z,2275
2017-08-22T15:08:46.566Z,2265
2017-08-22T15:09:56.861Z,2270
2017-08-22T15:11:06.838Z,2255
2017-08-22T15:12:16.496Z,2195
2017-08-22T15:13:26.474Z,2260
2017-08-22T15:14:36.447Z,2265
2017-08-22T15:15:46.426Z,2265
2017-08-22T15:16:56.716Z,2185
2017-08-22T15:18:07.013Z,2255
2017-08-22T15:19:16.992Z,2230
2017-08-22T15:20:27.294Z,2180
2017-08-22T15:21:37.298Z,2160
2017-08-22T15:22:47.606Z,2185
2017-08-22T15:23:57.896Z,2190
2017-08-22T15:25:08.217Z,2205
2017-08-22T15:26:18.520Z,2160
2017-08-22T15:27:28.499Z,2165
2017-08-22T15:28:38.517Z,2135
2017-08-22T15:29:48.174Z,2120
2017-08-22T15:30:58.463Z,2060
2017-08-22T15:32:08.756Z,1935
2017-08-22T15:33:19.046Z,1485
2017-08-22T15:34:29.339Z,1445
2017-08-22T15:35:38.998Z,1185
2017-08-22T15:36:49.306Z,440
2017-08-22T15:37:59.297Z,365
2017-08-22T15:39:09.588Z,355
2017-08-22T15:40:19.563Z,335
2017-08-22T15:41:29.848Z,335
2017-08-22T15:42:39.816Z,330
2017-08-22T15:43:49.790Z,335
2017-08-22T15:44:59.761Z,325
2017-08-22T15:46:09.731Z,325
2017-08-22T15:47:20.016Z,320
2017-08-22T15:48:30.302Z,320
2017-08-22T15:49:40.613Z,315
2017-08-22T15:50:50.901Z,315
2017-08-22T15:52:00.870Z,310
2017-08-22T15:53:10.525Z,310
2017-08-22T15:54:20.494Z,310
2017-08-22T15:55:30.777Z,310
2017-08-22T15:56:41.086Z,315
2017-08-22T15:57:51.389Z,315
2017-08-22T15:59:01.360Z,310
2017-08-22T16:00:11.014Z,310
2017-08-22T16:01:21.304Z,310
2017-08-22T16:02:31.583Z,310
2017-08-22T16:03:41.867Z,305
2017-08-22T16:04:52.144Z,300
2017-08-22T16:06:02.425Z,295
2017-08-22T16:07:12.403Z,295
2017-08-22T16:08:22.365Z,295
2017-08-22T16:09:32.644Z,290
2017-08-22T16:10:42.922Z,290
2017-08-22T16:11:52.888Z,285
2017-08-22T16:13:03.167Z,285
2017-08-22T16:14:13.134Z,285
2017-08-22T16:15:23.102Z,280
2017-08-22T16:16:33.380Z,280
2017-08-22T16:17:43.661Z,280